createdAt,value
2023-04-01T00:00:55.164Z,92528.84
2023-04-01T00:03:24.378Z,92531.13
2023-04-01T00:05:51.869Z,92511.19
2023-04-01T00:08:19.322Z,92505.41
2023-04-01T00:10:47.053Z,92513.69
2023-04-01T00:13:15.114Z,92507.38
2023-04-01T00:15:43.557Z,92524.41
2023-04-01T00:18:11.303Z,92512.03
2023-04-01T00:20:38.795Z,92505.84
2023-04-01T00:23:06.407Z,92522.41
2023-04-01T00:25:34.348Z,92521.12
2023-04-01T00:28:01.805Z,92514.81
2023-04-01T00:30:29.241Z,92503.00
2023-04-01T00:32:56.962Z,92498.75
2023-04-01T00:35:24.655Z,92507.81
2023-04-01T00:37:52.130Z,92508.97
2023-04-01T00:40:30.643Z,92503.41
2023-04-01T00:42:58.073Z,92499.88
2023-04-01T00:45:36.420Z,92500.84
2023-04-01T00:48:10.296Z,92493.28
2023-04-01T00:50:41.817Z,92492.63
2023-04-01T00:53:09.747Z,92494.50
2023-04-01T00:55:40.589Z,92481.72
2023-04-01T00:58:13.407Z,92471.50
2023-04-01T01:00:41.515Z,92466.38
2023-04-01T01:03:09.384Z,92463.09
2023-04-01T01:05:49.674Z,92473.25
2023-04-01T01:08:31.737Z,92465.66
2023-04-01T01:10:59.101Z,92471.16
2023-04-01T01:13:41.601Z,92466.84
2023-04-01T01:16:25.378Z,92447.75
2023-04-01T01:19:24.337Z,92443.66
2023-04-01T01:22:26.693Z,92446.28
2023-04-01T01:25:25.777Z,92439.47
2023-04-01T01:28:13.768Z,92440.56
2023-04-01T01:31:03.441Z,92449.22
2023-04-01T01:33:33.676Z,92447.09
2023-04-01T01:36:05.335Z,92437.22
2023-04-01T01:38:36.235Z,92432.00
2023-04-01T01:41:06.532Z,92442.50
2023-04-01T01:43:39.992Z,92429.22
2023-04-01T01:46:12.993Z,92418.75
2023-04-01T01:48:44.657Z,92428.75
2023-04-01T01:51:12.487Z,92422.19
2023-04-01T01:53:39.986Z,92420.62
2023-04-01T01:56:08.266Z,92418.50
2023-04-01T01:58:46.834Z,92424.28
2023-04-01T02:01:18.742Z,92417.22
2023-04-01T02:03:47.952Z,92428.25
2023-04-01T02:06:19.997Z,92406.44
2023-04-01T02:08:58.766Z,92392.78
2023-04-01T02:11:35.121Z,92391.03
2023-04-01T02:14:15.061Z,92392.09
2023-04-01T02:16:59.301Z,92378.47
2023-04-01T02:19:34.953Z,92376.63
2023-04-01T02:22:05.597Z,92374.69
2023-04-01T02:24:37.216Z,92372.37
2023-04-01T02:27:05.957Z,92376.09
2023-04-01T02:29:34.310Z,92374.81
2023-04-01T02:32:02.153Z,92363.25
2023-04-01T02:34:30.596Z,92346.75
2023-04-01T02:36:58.537Z,92352.25
2023-04-01T02:39:27.370Z,92353.56
2023-04-01T02:41:55.415Z,92344.97
2023-04-01T02:44:23.389Z,92358.91
2023-04-01T02:46:50.909Z,92358.88
2023-04-01T02:49:18.579Z,92358.38
2023-04-01T02:51:46.347Z,92356.56
2023-04-01T02:54:14.031Z,92368.44
2023-04-01T02:56:42.100Z,92362.16
2023-04-01T02:59:09.370Z,92378.47
2023-04-01T03:01:36.858Z,92371.94
2023-04-01T03:04:04.998Z,92373.50
2023-04-01T03:06:32.451Z,92393.69
2023-04-01T03:08:59.730Z,92392.63
2023-04-01T03:11:27.678Z,92386.59
2023-04-01T03:13:55.032Z,92396.56
2023-04-01T03:16:22.665Z,92401.53
2023-04-01T03:18:53.735Z,92393.63
2023-04-01T03:21:24.347Z,92400.44
2023-04-01T03:23:53.587Z,92395.25
2023-04-01T03:26:23.198Z,92396.75
2023-04-01T03:28:50.492Z,92401.50
2023-04-01T03:31:18.361Z,92389.97
2023-04-01T03:33:47.066Z,92399.94
2023-04-01T03:36:14.517Z,92385.03
2023-04-01T03:38:42.651Z,92391.28
2023-04-01T03:41:18.948Z,92390.47
2023-04-01T03:43:46.949Z,92398.78
2023-04-01T03:46:19.625Z,92399.38
2023-04-01T03:48:48.318Z,92402.03
2023-04-01T03:51:15.834Z,92391.19
2023-04-01T03:53:43.271Z,92388.84
2023-04-01T03:56:11.680Z,92391.78
2023-04-01T03:58:40.324Z,92388.31
2023-04-01T04:01:19.674Z,92383.84
2023-04-01T04:03:47.818Z,92382.50
2023-04-01T04:06:15.982Z,92376.78
2023-04-01T04:08:43.794Z,92369.78
2023-04-01T04:11:12.189Z,92373.25
2023-04-01T04:13:40.280Z,92354.13
2023-04-01T04:16:08.569Z,92343.34
2023-04-01T04:18:37.712Z,92327.66
2023-04-01T04:21:05.766Z,92311.47
2023-04-01T04:23:34.739Z,92316.38
2023-04-01T04:26:06.710Z,92316.19
2023-04-01T04:28:35.012Z,92308.59
2023-04-01T04:31:03.178Z,92303.34
2023-04-01T04:33:30.801Z,92293.94
2023-04-01T04:35:59.953Z,92304.34
2023-04-01T04:38:28.658Z,92291.81
2023-04-01T04:40:57.550Z,92286.84
2023-04-01T04:43:25.074Z,92285.50
2023-04-01T04:45:53.048Z,92278.44
2023-04-01T04:48:21.431Z,92278.22
2023-04-01T04:50:51.007Z,92270.06
2023-04-01T04:53:20.642Z,92277.66
2023-04-01T04:55:50.131Z,92255.69
2023-04-01T04:58:19.219Z,92252.75
2023-04-01T05:00:48.034Z,92247.53
2023-04-01T05:03:17.774Z,92245.19
2023-04-01T05:05:50.900Z,92243.13
2023-04-01T05:08:18.756Z,92244.69
2023-04-01T05:10:47.696Z,92237.34
2023-04-01T05:13:15.428Z,92229.25
2023-04-01T05:15:43.827Z,92224.03
2023-04-01T05:18:11.275Z,92224.03
2023-04-01T05:20:38.761Z,92218.03
2023-04-01T05:23:06.622Z,92215.41
2023-04-01T05:25:35.559Z,92222.75
2023-04-01T05:28:03.151Z,92221.97
2023-04-01T05:30:31.214Z,92228.78
2023-04-01T05:32:59.138Z,92218.56
2023-04-01T05:35:26.627Z,92213.59
2023-04-01T05:37:54.384Z,92211.50
2023-04-01T05:40:21.971Z,92212.53
2023-04-01T05:42:49.463Z,92202.88
2023-04-01T05:45:17.515Z,92206.78
2023-04-01T05:47:45.420Z,92205.22
2023-04-01T05:50:13.382Z,92214.13
2023-04-01T05:52:41.037Z,92208.88
2023-04-01T05:55:08.797Z,92202.88
2023-04-01T05:57:37.565Z,92211.78
2023-04-01T06:00:07.276Z,92204.69
2023-04-01T06:02:40.359Z,92187.66
2023-04-01T06:05:29.832Z,92201.22
2023-04-01T06:08:02.052Z,92183.19
2023-04-01T06:10:45.893Z,92186.25
2023-04-01T06:13:40.276Z,92204.91
2023-04-01T06:16:29.967Z,92193.78
2023-04-01T06:19:28.156Z,92189.81
2023-04-01T06:22:33.744Z,92192.28
2023-04-01T06:25:09.032Z,92199.28
2023-04-01T06:27:40.059Z,92196.31
2023-04-01T06:30:41.899Z,92191.72
2023-04-01T06:33:34.545Z,92203.00
2023-04-01T06:36:02.170Z,92198.22
2023-04-01T06:38:39.578Z,92198.19
2023-04-01T06:41:24.396Z,92214.03
2023-04-01T06:44:26.408Z,92204.84
2023-04-01T06:47:19.570Z,92206.78
2023-04-01T06:50:27.333Z,92191.28
2023-04-01T06:53:13.991Z,92190.59
2023-04-01T06:56:00.882Z,92181.09
2023-04-01T06:58:38.601Z,92182.38
2023-04-01T07:01:11.784Z,92176.72
2023-04-01T07:04:02.286Z,92179.84
2023-04-01T07:06:36.289Z,92185.62
2023-04-01T07:09:10.642Z,92183.88
2023-04-01T07:11:44.162Z,92184.34
2023-04-01T07:14:32.280Z,92182.22
2023-04-01T07:17:13.896Z,92174.44
2023-04-01T07:19:53.110Z,92174.94
2023-04-01T07:22:36.788Z,92166.47
2023-04-01T07:25:14.266Z,92174.13
2023-04-01T07:27:44.877Z,92163.00
2023-04-01T07:30:22.675Z,92152.50
2023-04-01T07:33:21.106Z,92133.38
2023-04-01T07:36:00.290Z,92134.47
2023-04-01T07:38:48.954Z,92109.12
2023-04-01T07:41:42.140Z,92126.31
2023-04-01T07:44:14.613Z,92129.22
2023-04-01T07:47:04.272Z,92129.81
2023-04-01T07:49:46.172Z,92121.41
2023-04-01T07:52:37.166Z,92110.97
2023-04-01T07:55:17.016Z,92102.38
2023-04-01T07:58:02.976Z,92102.84
2023-04-01T08:00:42.471Z,92099.88
2023-04-01T08:03:38.725Z,92101.19
2023-04-01T08:06:35.634Z,92101.47
2023-04-01T08:09:17.374Z,92094.66
2023-04-01T08:12:05.333Z,92098.53
2023-04-01T08:14:53.834Z,92099.34
2023-04-01T08:18:12.635Z,92085.59
2023-04-01T08:20:59.725Z,92075.91
2023-04-01T08:23:35.039Z,92082.31
2023-04-01T08:26:06.532Z,92088.31
2023-04-01T08:28:50.663Z,92084.69
2023-04-01T08:31:30.921Z,92078.22
2023-04-01T08:33:59.786Z,92072.22
2023-04-01T08:36:38.916Z,92054.44
2023-04-01T08:39:20.777Z,92057.31
2023-04-01T08:42:11.422Z,92056.06
2023-04-01T08:45:01.590Z,92042.59
2023-04-01T08:48:00.735Z,92039.69
2023-04-01T08:50:47.860Z,92013.47
2023-04-01T08:53:31.320Z,92019.72
2023-04-01T08:56:28.447Z,91994.81
2023-04-01T08:59:18.494Z,91988.00
2023-04-01T09:01:48.940Z,91999.38
2023-04-01T09:05:06.218Z,91989.34
2023-04-01T09:07:49.701Z,91984.41
2023-04-01T09:10:36.738Z,91987.47
2023-04-01T09:13:42.974Z,91990.22
2023-04-01T09:17:07.608Z,91975.44
2023-04-01T09:19:46.821Z,91976.59
2023-04-01T09:22:29.123Z,91970.28
2023-04-01T09:25:21.113Z,91979.06
2023-04-01T09:27:57.790Z,91979.69
2023-04-01T09:30:36.201Z,91968.78
2023-04-01T09:33:35.709Z,91968.78
2023-04-01T09:36:02.935Z,91960.19
2023-04-01T09:38:33.734Z,91941.47
2023-04-01T09:41:23.090Z,91946.03
2023-04-01T09:44:01.150Z,91954.44
2023-04-01T09:46:33.201Z,91947.41
2023-04-01T09:49:39.326Z,91938.34
2023-04-01T09:52:29.234Z,91935.19
2023-04-01T09:55:08.559Z,91937.37
2023-04-01T09:57:57.798Z,91944.50
2023-04-01T10:00:26.856Z,91933.28
2023-04-01T10:02:58.836Z,91927.06
2023-04-01T10:05:29.385Z,91923.78
2023-04-01T10:08:21.812Z,91935.28
2023-04-01T10:11:26.643Z,91939.19
2023-04-01T10:14:13.448Z,91927.84
2023-04-01T10:17:18.454Z,91902.50
2023-04-01T10:20:14.776Z,91901.72
2023-04-01T10:23:19.740Z,91903.09
2023-04-01T10:26:03.735Z,91900.63
2023-04-01T10:29:04.091Z,91902.34
2023-04-01T10:32:11.086Z,91899.66
2023-04-01T10:34:45.564Z,91907.78
2023-04-01T10:37:39.244Z,91917.84
2023-04-01T10:40:23.716Z,91901.25
2023-04-01T10:43:05.560Z,91894.38
2023-04-01T10:45:37.280Z,91891.22
2023-04-01T10:48:23.743Z,91883.16
2023-04-01T10:51:07.520Z,91881.28
2023-04-01T10:53:47.275Z,91883.13
2023-04-01T10:56:26.918Z,91880.25
2023-04-01T10:59:09.270Z,91885.09
2023-04-01T11:02:04.063Z,91878.50
2023-04-01T11:05:00.378Z,91882.09
2023-04-01T11:08:04.969Z,91867.97
2023-04-01T11:10:59.287Z,91865.81
2023-04-01T11:14:00.801Z,91864.25
2023-04-01T11:16:53.074Z,91872.47
2023-04-01T11:20:02.705Z,91856.56
2023-04-01T11:22:54.249Z,91869.72
2023-04-01T11:25:40.527Z,91864.03
2023-04-01T11:28:53.645Z,91857.44
2023-04-01T11:31:21.164Z,91856.25
2023-04-01T11:33:58.442Z,91843.75
2023-04-01T11:36:32.115Z,91851.16
2023-04-01T11:39:23.034Z,91865.31
2023-04-01T11:42:16.362Z,91869.19
2023-04-01T11:45:03.423Z,91864.06
2023-04-01T11:47:58.236Z,91876.19
2023-04-01T11:50:45.606Z,91879.44
2023-04-01T11:53:31.378Z,91898.84
2023-04-01T11:56:31.599Z,91939.22
2023-04-01T11:59:02.812Z,91962.97
2023-04-01T12:01:51.300Z,92018.91
2023-04-01T12:04:32.192Z,92058.66
2023-04-01T12:07:23.822Z,92090.88
2023-04-01T12:10:13.191Z,92109.81
2023-04-01T12:12:58.131Z,92126.56
2023-04-01T12:15:42.890Z,92123.22
2023-04-01T12:18:28.745Z,92119.91
2023-04-01T12:21:10.137Z,92122.69
2023-04-01T12:24:20.377Z,92131.69
2023-04-01T12:27:25.931Z,92120.97
2023-04-01T12:30:47.579Z,92127.19
2023-04-01T12:33:38.422Z,92114.03
2023-04-01T12:36:24.472Z,92085.25
2023-04-01T12:39:01.684Z,92090.13
2023-04-01T12:41:57.326Z,92086.84
2023-04-01T12:44:51.957Z,92089.75
2023-04-01T12:47:28.329Z,92094.94
2023-04-01T12:50:14.868Z,92085.44
2023-04-01T12:53:08.482Z,92070.91
2023-04-01T12:55:40.521Z,92081.34
2023-04-01T12:58:07.943Z,92084.56
2023-04-01T13:01:00.858Z,92072.44
2023-04-01T13:03:31.383Z,92070.34
2023-04-01T13:06:28.899Z,92081.19
2023-04-01T13:09:06.299Z,92086.97
2023-04-01T13:11:42.153Z,92070.34
2023-04-01T13:14:30.857Z,92058.41
2023-04-01T13:17:08.734Z,92065.00
2023-04-01T13:20:01.844Z,92073.09
2023-04-01T13:22:41.671Z,92067.25
2023-04-01T13:25:30.876Z,92094.78
2023-04-01T13:28:12.318Z,92113.03
2023-04-01T13:31:20.112Z,92098.03
2023-04-01T13:34:26.760Z,92055.56
2023-04-01T13:37:23.920Z,92031.38
2023-04-01T13:40:04.408Z,92006.69
2023-04-01T13:42:41.502Z,92003.66
2023-04-01T13:45:27.645Z,92003.56
2023-04-01T13:48:15.013Z,91996.56
2023-04-01T13:51:14.070Z,91994.47
2023-04-01T13:53:47.457Z,92001.50
2023-04-01T13:56:24.240Z,91995.78
2023-04-01T13:59:16.386Z,91998.25
2023-04-01T14:01:58.962Z,91987.31
2023-04-01T14:04:41.938Z,91969.34
2023-04-01T14:07:21.829Z,91974.22
2023-04-01T14:10:21.967Z,91960.41
2023-04-01T14:13:00.405Z,91952.72
2023-04-01T14:15:54.245Z,91953.38
2023-04-01T14:18:43.245Z,91927.00
2023-04-01T14:21:34.228Z,91915.56
2023-04-01T14:24:10.877Z,91917.69
2023-04-01T14:26:41.742Z,91921.63
2023-04-01T14:29:41.248Z,91914.84
2023-04-01T14:32:28.408Z,91915.44
2023-04-01T14:35:11.812Z,91915.25
2023-04-01T14:38:16.379Z,91909.84
2023-04-01T14:41:09.965Z,91909.66
2023-04-01T14:43:46.377Z,91919.31
2023-04-01T14:46:37.325Z,91919.59
2023-04-01T14:49:24.304Z,91924.34
2023-04-01T14:51:54.305Z,91932.66
2023-04-01T14:54:44.280Z,91941.22
2023-04-01T14:57:31.962Z,91943.00
2023-04-01T15:00:15.816Z,91946.22
2023-04-01T15:03:15.117Z,91946.50
2023-04-01T15:05:49.384Z,91938.69
2023-04-01T15:08:29.273Z,91941.69
2023-04-01T15:11:28.083Z,91928.41
2023-04-01T15:14:19.705Z,91897.97
2023-04-01T15:17:16.283Z,91891.91
2023-04-01T15:20:14.502Z,91923.91
2023-04-01T15:22:51.530Z,91937.69
2023-04-01T15:25:59.733Z,91937.66
2023-04-01T15:28:33.540Z,91921.34
2023-04-01T15:31:19.761Z,91916.94
2023-04-01T15:34:12.336Z,91910.09
2023-04-01T15:36:48.541Z,91911.12
2023-04-01T15:39:25.686Z,91904.66
2023-04-01T15:42:13.227Z,91905.53
2023-04-01T15:44:56.063Z,91909.91
2023-04-01T15:47:26.851Z,91914.13
2023-04-01T15:50:05.998Z,91919.63
2023-04-01T15:53:06.847Z,91928.66
2023-04-01T15:56:08.850Z,91927.25
2023-04-01T15:58:57.807Z,91940.62
2023-04-01T16:01:26.181Z,91945.13
2023-04-01T16:04:09.710Z,91945.53
2023-04-01T16:06:53.791Z,91961.66
2023-04-01T16:09:39.840Z,91953.63
2023-04-01T16:12:24.482Z,91970.25
2023-04-01T16:15:39.220Z,92083.69
2023-04-01T16:18:37.409Z,92107.66
2023-04-01T16:21:49.560Z,92107.63
2023-04-01T16:24:45.701Z,92122.31
2023-04-01T16:27:36.874Z,92149.25
2023-04-01T16:30:41.180Z,92152.00
2023-04-01T16:33:16.302Z,92167.22
2023-04-01T16:36:22.512Z,92185.12
2023-04-01T16:39:13.306Z,92178.25
2023-04-01T16:42:22.725Z,92184.47
2023-04-01T16:44:57.756Z,92179.53
2023-04-01T16:47:33.036Z,92168.63
2023-04-01T16:50:23.048Z,92193.63
2023-04-01T16:53:17.079Z,92195.06
2023-04-01T16:56:03.672Z,92191.62
2023-04-01T16:58:38.787Z,92162.72
2023-04-01T17:01:20.255Z,92148.16
2023-04-01T17:03:53.455Z,92123.22
2023-04-01T17:06:32.241Z,92136.16
2023-04-01T17:09:26.734Z,92145.34
2023-04-01T17:12:13.193Z,92145.88
2023-04-01T17:15:02.351Z,92155.44
2023-04-01T17:17:39.767Z,92147.34
2023-04-01T17:20:07.277Z,92151.13
2023-04-01T17:22:38.970Z,92154.59
2023-04-01T17:25:31.375Z,92155.56
2023-04-01T17:28:20.587Z,92165.06
2023-04-01T17:31:03.261Z,92169.72
2023-04-01T17:33:49.658Z,92170.84
2023-04-01T17:36:26.581Z,92181.28
2023-04-01T17:39:19.150Z,92167.72
2023-04-01T17:41:58.632Z,92174.31
2023-04-01T17:44:32.629Z,92173.59
2023-04-01T17:47:20.046Z,92177.22
2023-04-01T17:50:15.661Z,92183.44
2023-04-01T17:53:09.153Z,92204.69
2023-04-01T17:56:18.108Z,92218.59
2023-04-01T17:58:47.679Z,92219.78
2023-04-01T18:01:50.102Z,92230.06
2023-04-01T18:05:04.981Z,92223.00
2023-04-01T18:08:01.347Z,92227.44
2023-04-01T18:10:47.900Z,92245.53
2023-04-01T18:13:34.532Z,92241.09
2023-04-01T18:16:39.050Z,92240.34
2023-04-01T18:19:35.666Z,92242.94
2023-04-01T18:22:41.707Z,92263.66
2023-04-01T18:25:16.325Z,92276.41
2023-04-01T18:28:21.375Z,92258.06
2023-04-01T18:31:23.147Z,92280.78
2023-04-01T18:34:03.803Z,92289.75
2023-04-01T18:36:43.331Z,92291.81
2023-04-01T18:39:17.602Z,92315.03
2023-04-01T18:42:00.401Z,92300.88
2023-04-01T18:44:50.148Z,92318.53
2023-04-01T18:47:44.007Z,92284.09
2023-04-01T18:50:42.754Z,92282.19
2023-04-01T18:53:20.768Z,92292.69
2023-04-01T18:55:54.010Z,92297.56
2023-04-01T18:58:27.651Z,92297.78
2023-04-01T19:01:05.222Z,92293.03
2023-04-01T19:04:09.045Z,92301.59
2023-04-01T19:06:45.734Z,92301.84
2023-04-01T19:09:22.328Z,92295.91
2023-04-01T19:12:17.117Z,92291.72
2023-04-01T19:14:55.801Z,92283.28
2023-04-01T19:17:49.278Z,92293.16
2023-04-01T19:20:42.159Z,92290.38
2023-04-01T19:23:36.420Z,92295.69
2023-04-01T19:26:31.634Z,92303.75
2023-04-01T19:29:08.039Z,92295.31
2023-04-01T19:31:53.451Z,92292.06
2023-04-01T19:34:36.555Z,92291.94
2023-04-01T19:37:12.986Z,92300.12
2023-04-01T19:39:53.015Z,92284.84
2023-04-01T19:43:06.957Z,92291.12
2023-04-01T19:46:00.995Z,92290.31
2023-04-01T19:48:53.155Z,92296.72
2023-04-01T19:51:37.968Z,92312.06
2023-04-01T19:54:29.745Z,92321.97
2023-04-01T19:57:35.600Z,92325.28
2023-04-01T20:00:20.168Z,92320.59
2023-04-01T20:02:57.757Z,92345.06
2023-04-01T20:05:37.445Z,92333.34
2023-04-01T20:08:39.603Z,92343.72
2023-04-01T20:11:19.202Z,92349.28
2023-04-01T20:14:09.824Z,92364.47
2023-04-01T20:16:55.506Z,92355.28
2023-04-01T20:19:35.633Z,92355.84
2023-04-01T20:22:09.982Z,92365.63
2023-04-01T20:24:44.755Z,92371.63
2023-04-01T20:27:22.299Z,92364.66
2023-04-01T20:30:14.904Z,92375.34
2023-04-01T20:32:51.560Z,92365.63
2023-04-01T20:35:57.137Z,92363.28
2023-04-01T20:38:43.348Z,92368.56
2023-04-01T20:41:28.494Z,92354.19
2023-04-01T20:44:13.662Z,92359.34
2023-04-01T20:47:16.272Z,92360.38
2023-04-01T20:49:51.593Z,92353.84
2023-04-01T20:52:27.322Z,92347.66
2023-04-01T20:55:21.091Z,92344.38
2023-04-01T20:58:03.329Z,92349.13
2023-04-01T21:00:54.828Z,92349.56
2023-04-01T21:03:28.710Z,92350.38
2023-04-01T21:06:29.081Z,92350.09
2023-04-01T21:09:27.901Z,92348.28
2023-04-01T21:12:20.147Z,92342.91
2023-04-01T21:15:00.642Z,92372.44
2023-04-01T21:18:37.632Z,92356.19
2023-04-01T21:21:17.442Z,92366.41
2023-04-01T21:24:10.142Z,92365.69
2023-04-01T21:27:03.054Z,92365.09
2023-04-01T21:29:33.251Z,92372.88
2023-04-01T21:32:11.884Z,92370.31
2023-04-01T21:34:56.357Z,92368.91
2023-04-01T21:37:54.460Z,92372.88
2023-04-01T21:40:41.968Z,92380.09
2023-04-01T21:43:41.330Z,92380.25
2023-04-01T21:46:38.098Z,92381.34
2023-04-01T21:49:08.999Z,92385.41
2023-04-01T21:52:14.012Z,92382.91
2023-04-01T21:54:54.669Z,92387.94
2023-04-01T21:57:25.008Z,92390.06
2023-04-01T22:00:15.571Z,92396.25
2023-04-01T22:02:49.165Z,92407.78
2023-04-01T22:05:39.628Z,92396.00
2023-04-01T22:08:21.332Z,92395.03
2023-04-01T22:11:18.161Z,92405.41
2023-04-01T22:14:03.362Z,92402.28
2023-04-01T22:16:48.994Z,92396.88
2023-04-01T22:19:51.905Z,92412.03
2023-04-01T22:22:52.304Z,92420.00
2023-04-01T22:25:32.960Z,92414.94
2023-04-01T22:28:13.712Z,92424.47
2023-04-01T22:30:49.357Z,92431.34
2023-04-01T22:33:28.984Z,92435.38
2023-04-01T22:36:06.129Z,92441.44
2023-04-01T22:38:36.727Z,92442.63
2023-04-01T22:41:25.257Z,92440.41
2023-04-01T22:43:52.668Z,92439.00
2023-04-01T22:46:45.192Z,92438.16
2023-04-01T22:49:51.558Z,92449.75
2023-04-01T22:52:51.712Z,92440.59
2023-04-01T22:55:27.179Z,92452.72
2023-04-01T22:58:12.763Z,92457.81
2023-04-01T23:00:55.865Z,92435.84
2023-04-01T23:03:32.727Z,92439.53
2023-04-01T23:06:06.022Z,92440.66
2023-04-01T23:08:56.152Z,92432.16
2023-04-01T23:11:28.106Z,92429.78
2023-04-01T23:14:22.157Z,92435.28
2023-04-01T23:16:58.983Z,92443.84
2023-04-01T23:19:39.219Z,92444.56
2023-04-01T23:22:37.499Z,92452.25
2023-04-01T23:25:27.242Z,92458.25
2023-04-01T23:28:16.309Z,92460.41
2023-04-01T23:30:43.901Z,92467.78
2023-04-01T23:33:20.661Z,92463.72
2023-04-01T23:35:56.762Z,92459.88
2023-04-01T23:38:27.223Z,92475.56
2023-04-01T23:40:56.190Z,92477.97
2023-04-01T23:43:35.763Z,92489.38
2023-04-01T23:46:05.379Z,92489.81
2023-04-01T23:48:42.829Z,92492.19
2023-04-01T23:51:21.986Z,92498.16
2023-04-01T23:54:00.182Z,92493.78
2023-04-01T23:56:44.772Z,92497.62
2023-04-01T23:59:33.756Z,92493.09
